sensor_id;sensor_type;location;lat;lon;timestamp;P1;P2;P0
62631;PMS5003;48703;51.248;-0.546;2023-02-13T00:00:23;31.99;29.56;
62631;PMS5003;48703;51.248;-0.546;2023-02-13T00:03:24;33.07;29.00;
62631;PMS5003;48703;51.248;-0.546;2023-02-13T00:06:26;30.90;28.19;
62631;PMS5003;48703;51.248;-0.546;2023-02-13T00:09:27;35.33;29.80;
62631;PMS5003;48703;51.248;-0.546;2023-02-13T00:12:28;33.35;28.82;
62631;PMS5003;48703;51.248;-0.546;2023-02-13T00:15:30;31.96;28.20;
62631;PMS5003;48703;51.248;-0.546;2023-02-13T00:18:32;31.40;28.06;
62631;PMS5003;48703;51.248;-0.546;2023-02-13T00:21:32;30.51;27.84;
62631;PMS5003;48703;51.248;-0.546;2023-02-13T00:24:33;31.97;27.36;
62631;PMS5003;48703;51.248;-0.546;2023-02-13T00:27:34;31.22;27.93;
62631;PMS5003;48703;51.248;-0.546;2023-02-13T00:30:36;29.90;26.29;
62631;PMS5003;48703;51.248;-0.546;2023-02-13T00:33:38;30.35;25.68;
62631;PMS5003;48703;51.248;-0.546;2023-02-13T00:36:39;33.20;30.38;
62631;PMS5003;48703;51.248;-0.546;2023-02-13T00:39:40;33.72;29.26;
62631;PMS5003;48703;51.248;-0.546;2023-02-13T00:42:42;31.94;28.91;
62631;PMS5003;48703;51.248;-0.546;2023-02-13T00:45:44;30.79;28.64;
62631;PMS5003;48703;51.248;-0.546;2023-02-13T00:48:46;34.19;30.52;
62631;PMS5003;48703;51.248;-0.546;2023-02-13T00:51:47;33.23;30.09;
62631;PMS5003;48703;51.248;-0.546;2023-02-13T00:54:49;33.26;29.38;
62631;PMS5003;48703;51.248;-0.546;2023-02-13T00:57:50;34.00;29.68;
62631;PMS5003;48703;51.248;-0.546;2023-02-13T01:00:53;37.75;31.99;
62631;PMS5003;48703;51.248;-0.546;2023-02-13T01:03:54;40.16;35.13;
62631;PMS5003;48703;51.248;-0.546;2023-02-13T01:06:54;38.57;34.07;
62631;PMS5003;48703;51.248;-0.546;2023-02-13T01:09:55;41.07;35.00;
62631;PMS5003;48703;51.248;-0.546;2023-02-13T01:12:57;39.74;36.01;
62631;PMS5003;48703;51.248;-0.546;2023-02-13T01:15:58;42.47;37.57;
62631;PMS5003;48703;51.248;-0.546;2023-02-13T01:18:59;38.85;34.99;
62631;PMS5003;48703;51.248;-0.546;2023-02-13T01:22:00;44.03;36.22;
62631;PMS5003;48703;51.248;-0.546;2023-02-13T01:25:02;42.76;35.78;
62631;PMS5003;48703;51.248;-0.546;2023-02-13T01:28:03;42.53;36.18;
62631;PMS5003;48703;51.248;-0.546;2023-02-13T01:31:04;39.94;34.74;
62631;PMS5003;48703;51.248;-0.546;2023-02-13T01:34:05;40.68;36.84;
62631;PMS5003;48703;51.248;-0.546;2023-02-13T01:37:07;44.91;37.60;
62631;PMS5003;48703;51.248;-0.546;2023-02-13T01:40:09;38.82;34.24;
62631;PMS5003;48703;51.248;-0.546;2023-02-13T01:43:09;42.56;37.29;
62631;PMS5003;48703;51.248;-0.546;2023-02-13T01:46:11;43.70;35.48;
62631;PMS5003;48703;51.248;-0.546;2023-02-13T01:49:12;44.25;36.54;
62631;PMS5003;48703;51.248;-0.546;2023-02-13T01:52:13;42.38;36.63;
62631;PMS5003;48703;51.248;-0.546;2023-02-13T01:55:15;45.45;41.38;
62631;PMS5003;48703;51.248;-0.546;2023-02-13T01:58:18;39.99;35.77;
62631;PMS5003;48703;51.248;-0.546;2023-02-13T02:01:19;38.29;32.97;
62631;PMS5003;48703;51.248;-0.546;2023-02-13T02:04:21;39.54;34.86;
62631;PMS5003;48703;51.248;-0.546;2023-02-13T02:07:22;41.20;35.28;
62631;PMS5003;48703;51.248;-0.546;2023-02-13T02:10:24;44.43;37.84;
62631;PMS5003;48703;51.248;-0.546;2023-02-13T02:13:25;37.59;32.58;
62631;PMS5003;48703;51.248;-0.546;2023-02-13T02:16:27;39.47;35.71;
62631;PMS5003;48703;51.248;-0.546;2023-02-13T02:19:31;43.13;35.43;
62631;PMS5003;48703;51.248;-0.546;2023-02-13T02:24:46;41.10;35.62;
62631;PMS5003;48703;51.248;-0.546;2023-02-13T02:25:37;34.17;31.61;
62631;PMS5003;48703;51.248;-0.546;2023-02-13T02:28:39;42.97;37.58;
62631;PMS5003;48703;51.248;-0.546;2023-02-13T02:31:56;45.72;38.29;
62631;PMS5003;48703;51.248;-0.546;2023-02-13T02:34:40;42.75;37.52;
62631;PMS5003;48703;51.248;-0.546;2023-02-13T02:37:43;46.04;38.54;
62631;PMS5003;48703;51.248;-0.546;2023-02-13T02:40:43;41.28;34.84;
62631;PMS5003;48703;51.248;-0.546;2023-02-13T02:43:45;43.45;36.99;
62631;PMS5003;48703;51.248;-0.546;2023-02-13T02:46:46;42.30;37.17;
62631;PMS5003;48703;51.248;-0.546;2023-02-13T02:49:45;41.62;36.29;
62631;PMS5003;48703;51.248;-0.546;2023-02-13T02:52:50;41.14;35.28;
62631;PMS5003;48703;51.248;-0.546;2023-02-13T02:55:47;44.46;36.03;
62631;PMS5003;48703;51.248;-0.546;2023-02-13T02:58:49;44.31;37.94;
62631;PMS5003;48703;51.248;-0.546;2023-02-13T03:01:49;45.97;39.09;
62631;PMS5003;48703;51.248;-0.546;2023-02-13T03:04:50;36.40;32.26;
62631;PMS5003;48703;51.248;-0.546;2023-02-13T03:07:52;42.13;36.75;
62631;PMS5003;48703;51.248;-0.546;2023-02-13T03:10:53;44.04;37.96;
62631;PMS5003;48703;51.248;-0.546;2023-02-13T03:13:54;42.68;37.80;
62631;PMS5003;48703;51.248;-0.546;2023-02-13T03:16:56;47.49;41.93;
62631;PMS5003;48703;51.248;-0.546;2023-02-13T03:20:01;48.64;42.25;
62631;PMS5003;48703;51.248;-0.546;2023-02-13T03:23:01;47.71;40.69;
62631;PMS5003;48703;51.248;-0.546;2023-02-13T03:26:04;50.99;43.14;
62631;PMS5003;48703;51.248;-0.546;2023-02-13T03:29:03;51.30;43.81;
62631;PMS5003;48703;51.248;-0.546;2023-02-13T03:32:03;52.54;44.50;
62631;PMS5003;48703;51.248;-0.546;2023-02-13T03:35:11;44.35;39.00;
62631;PMS5003;48703;51.248;-0.546;2023-02-13T03:38:07;47.70;42.55;
62631;PMS5003;48703;51.248;-0.546;2023-02-13T03:41:10;49.15;43.40;
62631;PMS5003;48703;51.248;-0.546;2023-02-13T03:44:11;42.16;36.84;
62631;PMS5003;48703;51.248;-0.546;2023-02-13T03:47:10;49.46;42.15;
62631;PMS5003;48703;51.248;-0.546;2023-02-13T03:50:11;48.28;43.38;
62631;PMS5003;48703;51.248;-0.546;2023-02-13T03:53:13;51.90;44.99;
62631;PMS5003;48703;51.248;-0.546;2023-02-13T03:56:13;50.31;42.88;
62631;PMS5003;48703;51.248;-0.546;2023-02-13T03:59:17;53.07;44.90;
62631;PMS5003;48703;51.248;-0.546;2023-02-13T04:02:18;53.28;45.28;
62631;PMS5003;48703;51.248;-0.546;2023-02-13T04:05:20;57.35;48.00;
62631;PMS5003;48703;51.248;-0.546;2023-02-13T04:08:20;57.10;47.46;
62631;PMS5003;48703;51.248;-0.546;2023-02-13T04:11:23;51.50;46.96;
62631;PMS5003;48703;51.248;-0.546;2023-02-13T04:14:24;55.78;48.03;
62631;PMS5003;48703;51.248;-0.546;2023-02-13T04:17:26;53.87;46.18;
62631;PMS5003;48703;51.248;-0.546;2023-02-13T04:20:26;55.43;46.63;
62631;PMS5003;48703;51.248;-0.546;2023-02-13T04:23:26;53.22;46.97;
62631;PMS5003;48703;51.248;-0.546;2023-02-13T04:26:32;51.40;45.99;
62631;PMS5003;48703;51.248;-0.546;2023-02-13T04:29:29;59.62;49.72;
62631;PMS5003;48703;51.248;-0.546;2023-02-13T04:32:30;55.06;49.76;
62631;PMS5003;48703;51.248;-0.546;2023-02-13T04:35:31;62.81;50.72;
62631;PMS5003;48703;51.248;-0.546;2023-02-13T04:38:33;60.85;51.18;
62631;PMS5003;48703;51.248;-0.546;2023-02-13T04:41:34;58.10;48.90;
62631;PMS5003;48703;51.248;-0.546;2023-02-13T04:44:35;58.57;49.70;
62631;PMS5003;48703;51.248;-0.546;2023-02-13T04:47:36;56.35;49.86;
62631;PMS5003;48703;51.248;-0.546;2023-02-13T04:50:37;57.81;51.07;
62631;PMS5003;48703;51.248;-0.546;2023-02-13T04:53:38;59.88;52.16;
62631;PMS5003;48703;51.248;-0.546;2023-02-13T04:56:40;65.06;55.31;
62631;PMS5003;48703;51.248;-0.546;2023-02-13T04:59:41;66.94;56.12;
62631;PMS5003;48703;51.248;-0.546;2023-02-13T05:02:43;62.47;53.97;
62631;PMS5003;48703;51.248;-0.546;2023-02-13T05:05:44;60.86;52.43;
62631;PMS5003;48703;51.248;-0.546;2023-02-13T05:08:46;66.70;54.61;
62631;PMS5003;48703;51.248;-0.546;2023-02-13T05:11:49;62.94;54.96;
62631;PMS5003;48703;51.248;-0.546;2023-02-13T05:14:49;65.54;55.03;
62631;PMS5003;48703;51.248;-0.546;2023-02-13T05:17:51;63.50;55.49;
62631;PMS5003;48703;51.248;-0.546;2023-02-13T05:20:52;65.10;55.18;
62631;PMS5003;48703;51.248;-0.546;2023-02-13T05:23:53;63.10;55.24;
62631;PMS5003;48703;51.248;-0.546;2023-02-13T05:26:54;62.13;53.71;
62631;PMS5003;48703;51.248;-0.546;2023-02-13T05:29:56;63.86;51.25;
62631;PMS5003;48703;51.248;-0.546;2023-02-13T05:32:56;65.28;53.69;
62631;PMS5003;48703;51.248;-0.546;2023-02-13T05:35:59;58.44;48.43;
62631;PMS5003;48703;51.248;-0.546;2023-02-13T05:39:00;57.21;49.73;
62631;PMS5003;48703;51.248;-0.546;2023-02-13T05:42:01;61.71;52.57;
62631;PMS5003;48703;51.248;-0.546;2023-02-13T05:45:02;56.49;46.80;
62631;PMS5003;48703;51.248;-0.546;2023-02-13T05:48:04;58.18;50.87;
62631;PMS5003;48703;51.248;-0.546;2023-02-13T05:51:06;58.09;50.68;
62631;PMS5003;48703;51.248;-0.546;2023-02-13T05:54:07;61.41;48.21;
62631;PMS5003;48703;51.248;-0.546;2023-02-13T05:57:08;65.84;54.55;
62631;PMS5003;48703;51.248;-0.546;2023-02-13T06:00:10;59.25;51.74;
62631;PMS5003;48703;51.248;-0.546;2023-02-13T06:03:11;58.35;50.91;
62631;PMS5003;48703;51.248;-0.546;2023-02-13T06:06:12;57.78;47.84;
62631;PMS5003;48703;51.248;-0.546;2023-02-13T06:09:14;61.53;50.43;
62631;PMS5003;48703;51.248;-0.546;2023-02-13T06:12:16;60.25;50.16;
62631;PMS5003;48703;51.248;-0.546;2023-02-13T06:15:17;57.13;49.33;
62631;PMS5003;48703;51.248;-0.546;2023-02-13T06:18:19;61.99;52.88;
62631;PMS5003;48703;51.248;-0.546;2023-02-13T06:21:20;60.17;52.20;
62631;PMS5003;48703;51.248;-0.546;2023-02-13T06:24:22;61.24;53.12;
62631;PMS5003;48703;51.248;-0.546;2023-02-13T06:27:24;64.16;52.81;
62631;PMS5003;48703;51.248;-0.546;2023-02-13T06:30:25;56.62;48.07;
62631;PMS5003;48703;51.248;-0.546;2023-02-13T06:33:26;60.16;50.61;
62631;PMS5003;48703;51.248;-0.546;2023-02-13T06:36:28;59.87;48.99;
62631;PMS5003;48703;51.248;-0.546;2023-02-13T06:39:29;68.54;55.44;
62631;PMS5003;48703;51.248;-0.546;2023-02-13T06:42:30;61.51;51.57;
62631;PMS5003;48703;51.248;-0.546;2023-02-13T06:45:32;56.10;48.09;
62631;PMS5003;48703;51.248;-0.546;2023-02-13T06:48:33;59.71;49.87;
62631;PMS5003;48703;51.248;-0.546;2023-02-13T06:51:34;64.19;53.43;
62631;PMS5003;48703;51.248;-0.546;2023-02-13T06:54:35;63.29;51.50;
62631;PMS5003;48703;51.248;-0.546;2023-02-13T06:57:37;63.06;52.18;
62631;PMS5003;48703;51.248;-0.546;2023-02-13T07:00:37;62.38;53.74;
62631;PMS5003;48703;51.248;-0.546;2023-02-13T07:03:39;64.72;54.24;
62631;PMS5003;48703;51.248;-0.546;2023-02-13T07:06:41;58.34;49.99;
62631;PMS5003;48703;51.248;-0.546;2023-02-13T07:09:42;66.22;55.39;
62631;PMS5003;48703;51.248;-0.546;2023-02-13T07:12:43;61.59;51.50;
62631;PMS5003;48703;51.248;-0.546;2023-02-13T07:15:44;59.40;49.75;
62631;PMS5003;48703;51.248;-0.546;2023-02-13T07:18:45;56.32;47.40;
62631;PMS5003;48703;51.248;-0.546;2023-02-13T07:21:46;55.28;46.79;
62631;PMS5003;48703;51.248;-0.546;2023-02-13T07:24:47;56.87;49.06;
62631;PMS5003;48703;51.248;-0.546;2023-02-13T07:27:49;60.37;50.82;
62631;PMS5003;48703;51.248;-0.546;2023-02-13T07:30:50;56.96;47.32;
62631;PMS5003;48703;51.248;-0.546;2023-02-13T07:33:51;58.75;49.16;
62631;PMS5003;48703;51.248;-0.546;2023-02-13T07:36:52;61.23;50.62;
62631;PMS5003;48703;51.248;-0.546;2023-02-13T07:39:54;62.09;51.57;
62631;PMS5003;48703;51.248;-0.546;2023-02-13T07:42:55;54.39;45.62;
62631;PMS5003;48703;51.248;-0.546;2023-02-13T07:45:56;61.97;54.04;
62631;PMS5003;48703;51.248;-0.546;2023-02-13T07:48:57;59.57;51.16;
62631;PMS5003;48703;51.248;-0.546;2023-02-13T07:51:58;57.06;50.16;
62631;PMS5003;48703;51.248;-0.546;2023-02-13T07:55:00;65.72;53.84;
62631;PMS5003;48703;51.248;-0.546;2023-02-13T07:58:02;61.96;52.45;
62631;PMS5003;48703;51.248;-0.546;2023-02-13T08:01:05;57.18;48.68;
62631;PMS5003;48703;51.248;-0.546;2023-02-13T08:04:05;55.75;49.43;
62631;PMS5003;48703;51.248;-0.546;2023-02-13T08:07:07;57.50;48.91;
62631;PMS5003;48703;51.248;-0.546;2023-02-13T08:10:10;55.96;48.37;
62631;PMS5003;48703;51.248;-0.546;2023-02-13T08:13:10;60.74;48.94;
62631;PMS5003;48703;51.248;-0.546;2023-02-13T08:16:12;54.48;46.00;
62631;PMS5003;48703;51.248;-0.546;2023-02-13T08:19:14;62.70;54.67;
62631;PMS5003;48703;51.248;-0.546;2023-02-13T08:22:15;66.85;56.99;
62631;PMS5003;48703;51.248;-0.546;2023-02-13T08:25:17;68.34;57.40;
62631;PMS5003;48703;51.248;-0.546;2023-02-13T08:28:18;66.62;55.01;
62631;PMS5003;48703;51.248;-0.546;2023-02-13T08:31:19;63.50;54.72;
62631;PMS5003;48703;51.248;-0.546;2023-02-13T08:34:20;63.87;52.62;
62631;PMS5003;48703;51.248;-0.546;2023-02-13T08:37:22;72.46;60.38;
62631;PMS5003;48703;51.248;-0.546;2023-02-13T08:40:23;70.56;57.62;
62631;PMS5003;48703;51.248;-0.546;2023-02-13T08:43:25;70.70;58.77;
62631;PMS5003;48703;51.248;-0.546;2023-02-13T08:46:27;75.19;63.65;
62631;PMS5003;48703;51.248;-0.546;2023-02-13T08:49:28;71.10;63.01;
62631;PMS5003;48703;51.248;-0.546;2023-02-13T08:52:29;79.15;66.07;
62631;PMS5003;48703;51.248;-0.546;2023-02-13T08:55:30;67.36;57.03;
62631;PMS5003;48703;51.248;-0.546;2023-02-13T08:58:32;71.29;59.26;
62631;PMS5003;48703;51.248;-0.546;2023-02-13T09:01:33;79.52;68.75;
62631;PMS5003;48703;51.248;-0.546;2023-02-13T09:04:34;84.63;70.59;
62631;PMS5003;48703;51.248;-0.546;2023-02-13T09:07:35;91.43;78.75;
62631;PMS5003;48703;51.248;-0.546;2023-02-13T09:10:37;92.72;78.81;
62631;PMS5003;48703;51.248;-0.546;2023-02-13T09:13:38;88.18;77.31;
62631;PMS5003;48703;51.248;-0.546;2023-02-13T09:16:40;91.66;75.74;
62631;PMS5003;48703;51.248;-0.546;2023-02-13T09:19:41;86.12;73.31;
62631;PMS5003;48703;51.248;-0.546;2023-02-13T09:22:42;81.43;69.43;
62631;PMS5003;48703;51.248;-0.546;2023-02-13T09:25:44;76.74;66.72;
62631;PMS5003;48703;51.248;-0.546;2023-02-13T09:28:45;75.38;62.09;
62631;PMS5003;48703;51.248;-0.546;2023-02-13T09:31:47;76.16;63.49;
62631;PMS5003;48703;51.248;-0.546;2023-02-13T09:34:48;69.78;59.22;
62631;PMS5003;48703;51.248;-0.546;2023-02-13T09:37:50;75.81;62.45;
62631;PMS5003;48703;51.248;-0.546;2023-02-13T09:40:52;68.43;59.62;
62631;PMS5003;48703;51.248;-0.546;2023-02-13T09:43:55;70.29;60.45;
62631;PMS5003;48703;51.248;-0.546;2023-02-13T09:46:55;71.58;59.21;
62631;PMS5003;48703;51.248;-0.546;2023-02-13T09:49:57;63.75;54.52;
62631;PMS5003;48703;51.248;-0.546;2023-02-13T09:52:57;53.57;45.76;
62631;PMS5003;48703;51.248;-0.546;2023-02-13T09:56:00;59.99;47.90;
62631;PMS5003;48703;51.248;-0.546;2023-02-13T09:59:00;54.46;48.32;
62631;PMS5003;48703;51.248;-0.546;2023-02-13T10:02:01;52.78;45.54;
62631;PMS5003;48703;51.248;-0.546;2023-02-13T10:05:05;48.52;41.07;
62631;PMS5003;48703;51.248;-0.546;2023-02-13T10:08:05;52.32;46.72;
62631;PMS5003;48703;51.248;-0.546;2023-02-13T10:11:07;61.62;53.75;
62631;PMS5003;48703;51.248;-0.546;2023-02-13T10:14:08;60.72;52.46;
62631;PMS5003;48703;51.248;-0.546;2023-02-13T10:17:10;63.01;56.21;
62631;PMS5003;48703;51.248;-0.546;2023-02-13T10:20:15;65.19;54.24;
62631;PMS5003;48703;51.248;-0.546;2023-02-13T10:23:16;65.19;56.81;
62631;PMS5003;48703;51.248;-0.546;2023-02-13T10:26:13;64.06;54.48;
62631;PMS5003;48703;51.248;-0.546;2023-02-13T10:29:14;61.75;52.90;
62631;PMS5003;48703;51.248;-0.546;2023-02-13T10:32:16;50.09;44.26;
62631;PMS5003;48703;51.248;-0.546;2023-02-13T10:35:17;49.41;41.62;
62631;PMS5003;48703;51.248;-0.546;2023-02-13T10:38:19;52.03;43.31;
62631;PMS5003;48703;51.248;-0.546;2023-02-13T10:41:22;47.46;42.57;
62631;PMS5003;48703;51.248;-0.546;2023-02-13T10:44:25;46.16;39.77;
62631;PMS5003;48703;51.248;-0.546;2023-02-13T10:47:27;45.43;40.04;
62631;PMS5003;48703;51.248;-0.546;2023-02-13T10:50:25;46.77;39.83;
62631;PMS5003;48703;51.248;-0.546;2023-02-13T10:53:27;47.79;41.72;
62631;PMS5003;48703;51.248;-0.546;2023-02-13T10:56:27;46.28;40.85;
62631;PMS5003;48703;51.248;-0.546;2023-02-13T10:59:30;46.79;41.18;
62631;PMS5003;48703;51.248;-0.546;2023-02-13T11:02:28;43.13;38.90;
62631;PMS5003;48703;51.248;-0.546;2023-02-13T11:05:30;46.26;41.18;
62631;PMS5003;48703;51.248;-0.546;2023-02-13T11:08:31;44.53;40.62;
62631;PMS5003;48703;51.248;-0.546;2023-02-13T11:11:31;43.79;39.62;
62631;PMS5003;48703;51.248;-0.546;2023-02-13T11:14:32;46.51;38.07;
62631;PMS5003;48703;51.248;-0.546;2023-02-13T11:17:34;43.78;39.06;
62631;PMS5003;48703;51.248;-0.546;2023-02-13T11:20:34;43.17;38.67;
62631;PMS5003;48703;51.248;-0.546;2023-02-13T11:23:36;44.18;38.31;
62631;PMS5003;48703;51.248;-0.546;2023-02-13T11:26:37;44.96;39.44;
62631;PMS5003;48703;51.248;-0.546;2023-02-13T11:29:49;42.23;37.51;
62631;PMS5003;48703;51.248;-0.546;2023-02-13T11:32:39;42.20;37.29;
62631;PMS5003;48703;51.248;-0.546;2023-02-13T11:35:41;43.22;37.43;
62631;PMS5003;48703;51.248;-0.546;2023-02-13T11:38:43;44.57;38.42;
62631;PMS5003;48703;51.248;-0.546;2023-02-13T11:41:45;41.72;36.46;
62631;PMS5003;48703;51.248;-0.546;2023-02-13T11:44:47;39.58;34.86;
62631;PMS5003;48703;51.248;-0.546;2023-02-13T11:47:46;43.78;38.49;
62631;PMS5003;48703;51.248;-0.546;2023-02-13T11:50:50;39.81;37.17;
62631;PMS5003;48703;51.248;-0.546;2023-02-13T11:53:48;41.06;37.35;
62631;PMS5003;48703;51.248;-0.546;2023-02-13T11:56:50;39.13;34.07;
62631;PMS5003;48703;51.248;-0.546;2023-02-13T11:59:51;40.16;35.14;
62631;PMS5003;48703;51.248;-0.546;2023-02-13T12:02:52;43.77;36.20;
62631;PMS5003;48703;51.248;-0.546;2023-02-13T12:06:02;43.59;37.55;
62631;PMS5003;48703;51.248;-0.546;2023-02-13T12:08:55;38.19;32.54;
62631;PMS5003;48703;51.248;-0.546;2023-02-13T12:11:57;38.59;34.65;
62631;PMS5003;48703;51.248;-0.546;2023-02-13T12:14:59;41.91;35.65;
62631;PMS5003;48703;51.248;-0.546;2023-02-13T12:18:02;40.90;34.48;
62631;PMS5003;48703;51.248;-0.546;2023-02-13T12:21:02;42.82;36.78;
62631;PMS5003;48703;51.248;-0.546;2023-02-13T12:24:05;39.71;36.54;
62631;PMS5003;48703;51.248;-0.546;2023-02-13T12:27:05;36.64;33.74;
62631;PMS5003;48703;51.248;-0.546;2023-02-13T12:30:09;40.59;34.30;
62631;PMS5003;48703;51.248;-0.546;2023-02-13T12:33:10;33.16;30.06;
62631;PMS5003;48703;51.248;-0.546;2023-02-13T12:36:11;38.13;33.12;
62631;PMS5003;48703;51.248;-0.546;2023-02-13T12:39:15;36.93;33.79;
62631;PMS5003;48703;51.248;-0.546;2023-02-13T12:42:18;38.19;31.48;
62631;PMS5003;48703;51.248;-0.546;2023-02-13T12:45:20;37.97;33.57;
62631;PMS5003;48703;51.248;-0.546;2023-02-13T12:48:21;39.88;34.70;
62631;PMS5003;48703;51.248;-0.546;2023-02-13T12:51:22;38.72;34.09;
62631;PMS5003;48703;51.248;-0.546;2023-02-13T12:54:24;37.94;33.76;
62631;PMS5003;48703;51.248;-0.546;2023-02-13T12:57:23;40.39;35.33;
62631;PMS5003;48703;51.248;-0.546;2023-02-13T13:00:26;32.57;30.49;
62631;PMS5003;48703;51.248;-0.546;2023-02-13T13:03:27;39.20;33.48;
62631;PMS5003;48703;51.248;-0.546;2023-02-13T13:06:29;38.78;32.10;
62631;PMS5003;48703;51.248;-0.546;2023-02-13T13:09:32;35.52;32.77;
62631;PMS5003;48703;51.248;-0.546;2023-02-13T13:12:30;38.25;33.41;
62631;PMS5003;48703;51.248;-0.546;2023-02-13T13:15:31;38.85;34.13;
62631;PMS5003;48703;51.248;-0.546;2023-02-13T13:18:34;39.84;35.42;
62631;PMS5003;48703;51.248;-0.546;2023-02-13T13:21:34;36.10;30.97;
62631;PMS5003;48703;51.248;-0.546;2023-02-13T13:24:40;37.41;34.13;
62631;PMS5003;48703;51.248;-0.546;2023-02-13T13:27:36;37.63;33.22;
62631;PMS5003;48703;51.248;-0.546;2023-02-13T13:30:36;35.20;31.41;
62631;PMS5003;48703;51.248;-0.546;2023-02-13T13:33:38;37.94;32.93;
62631;PMS5003;48703;51.248;-0.546;2023-02-13T13:36:40;33.36;29.00;
62631;PMS5003;48703;51.248;-0.546;2023-02-13T13:39:42;32.40;28.81;
62631;PMS5003;48703;51.248;-0.546;2023-02-13T13:42:41;36.43;31.24;
62631;PMS5003;48703;51.248;-0.546;2023-02-13T13:45:44;34.51;29.74;
62631;PMS5003;48703;51.248;-0.546;2023-02-13T13:48:49;35.51;32.75;
62631;PMS5003;48703;51.248;-0.546;2023-02-13T13:51:44;33.65;28.65;
62631;PMS5003;48703;51.248;-0.546;2023-02-13T13:54:45;37.03;32.47;
62631;PMS5003;48703;51.248;-0.546;2023-02-13T13:57:57;34.78;29.48;
62631;PMS5003;48703;51.248;-0.546;2023-02-13T14:01:04;34.79;32.16;
62631;PMS5003;48703;51.248;-0.546;2023-02-13T14:03:50;34.88;31.83;
62631;PMS5003;48703;51.248;-0.546;2023-02-13T14:07:23;32.59;29.72;
62631;PMS5003;48703;51.248;-0.546;2023-02-13T14:09:52;35.81;32.00;
62631;PMS5003;48703;51.248;-0.546;2023-02-13T14:12:58;32.90;29.78;
62631;PMS5003;48703;51.248;-0.546;2023-02-13T14:15:57;34.52;31.55;
62631;PMS5003;48703;51.248;-0.546;2023-02-13T14:18:58;36.30;30.38;
62631;PMS5003;48703;51.248;-0.546;2023-02-13T14:22:33;31.03;27.57;
62631;PMS5003;48703;51.248;-0.546;2023-02-13T14:25:02;31.23;27.59;
62631;PMS5003;48703;51.248;-0.546;2023-02-13T14:28:02;33.25;28.80;
62631;PMS5003;48703;51.248;-0.546;2023-02-13T14:31:04;34.57;31.15;
62631;PMS5003;48703;51.248;-0.546;2023-02-13T14:34:04;31.70;28.62;
62631;PMS5003;48703;51.248;-0.546;2023-02-13T14:37:15;30.73;28.49;
62631;PMS5003;48703;51.248;-0.546;2023-02-13T14:40:28;31.94;28.27;
62631;PMS5003;48703;51.248;-0.546;2023-02-13T14:43:45;29.34;27.99;
62631;PMS5003;48703;51.248;-0.546;2023-02-13T14:46:15;33.33;29.38;
62631;PMS5003;48703;51.248;-0.546;2023-02-13T14:49:11;32.28;29.49;
62631;PMS5003;48703;51.248;-0.546;2023-02-13T14:52:14;32.16;29.14;
62631;PMS5003;48703;51.248;-0.546;2023-02-13T14:55:14;29.81;26.68;
62631;PMS5003;48703;51.248;-0.546;2023-02-13T14:58:15;30.20;26.74;
62631;PMS5003;48703;51.248;-0.546;2023-02-13T15:01:17;32.49;29.13;
62631;PMS5003;48703;51.248;-0.546;2023-02-13T15:04:19;31.93;27.93;
62631;PMS5003;48703;51.248;-0.546;2023-02-13T15:07:20;30.30;26.51;
62631;PMS5003;48703;51.248;-0.546;2023-02-13T15:10:26;29.97;28.16;
62631;PMS5003;48703;51.248;-0.546;2023-02-13T15:13:22;33.70;29.83;
62631;PMS5003;48703;51.248;-0.546;2023-02-13T15:16:21;32.16;27.75;
62631;PMS5003;48703;51.248;-0.546;2023-02-13T15:19:23;31.68;27.78;
62631;PMS5003;48703;51.248;-0.546;2023-02-13T15:22:27;30.49;27.20;
62631;PMS5003;48703;51.248;-0.546;2023-02-13T15:25:28;30.88;28.68;
62631;PMS5003;48703;51.248;-0.546;2023-02-13T15:28:27;31.38;28.58;
62631;PMS5003;48703;51.248;-0.546;2023-02-13T15:31:29;29.29;27.45;
62631;PMS5003;48703;51.248;-0.546;2023-02-13T15:34:30;28.65;25.79;
62631;PMS5003;48703;51.248;-0.546;2023-02-13T15:37:31;27.97;25.13;
62631;PMS5003;48703;51.248;-0.546;2023-02-13T15:40:33;28.14;26.19;
62631;PMS5003;48703;51.248;-0.546;2023-02-13T15:43:34;29.21;26.69;
62631;PMS5003;48703;51.248;-0.546;2023-02-13T15:46:35;30.49;26.91;
62631;PMS5003;48703;51.248;-0.546;2023-02-13T15:49:37;30.65;27.32;
62631;PMS5003;48703;51.248;-0.546;2023-02-13T15:52:37;30.12;27.31;
62631;PMS5003;48703;51.248;-0.546;2023-02-13T15:55:39;29.26;27.16;
62631;PMS5003;48703;51.248;-0.546;2023-02-13T15:58:40;28.93;25.66;
62631;PMS5003;48703;51.248;-0.546;2023-02-13T16:01:41;30.99;26.43;
62631;PMS5003;48703;51.248;-0.546;2023-02-13T16:04:42;27.30;24.22;
62631;PMS5003;48703;51.248;-0.546;2023-02-13T16:07:46;26.78;25.64;
62631;PMS5003;48703;51.248;-0.546;2023-02-13T16:10:44;28.59;25.28;
62631;PMS5003;48703;51.248;-0.546;2023-02-13T16:14:18;31.09;27.09;
62631;PMS5003;48703;51.248;-0.546;2023-02-13T16:16:49;29.42;27.04;
62631;PMS5003;48703;51.248;-0.546;2023-02-13T16:19:51;29.64;27.12;
62631;PMS5003;48703;51.248;-0.546;2023-02-13T16:22:51;28.26;26.70;
62631;PMS5003;48703;51.248;-0.546;2023-02-13T16:25:52;29.61;26.61;
62631;PMS5003;48703;51.248;-0.546;2023-02-13T16:28:54;30.96;27.74;
62631;PMS5003;48703;51.248;-0.546;2023-02-13T16:32:02;35.25;29.52;
62631;PMS5003;48703;51.248;-0.546;2023-02-13T16:35:15;30.68;27.10;
62631;PMS5003;48703;51.248;-0.546;2023-02-13T16:37:58;29.88;27.63;
62631;PMS5003;48703;51.248;-0.546;2023-02-13T16:40:59;28.83;24.64;
62631;PMS5003;48703;51.248;-0.546;2023-02-13T16:44:00;29.39;26.26;
62631;PMS5003;48703;51.248;-0.546;2023-02-13T16:47:02;32.87;27.63;
62631;PMS5003;48703;51.248;-0.546;2023-02-13T16:50:03;28.65;24.99;
62631;PMS5003;48703;51.248;-0.546;2023-02-13T16:53:05;29.17;27.51;
62631;PMS5003;48703;51.248;-0.546;2023-02-13T16:56:08;33.24;28.66;
62631;PMS5003;48703;51.248;-0.546;2023-02-13T16:59:20;32.19;27.42;
62631;PMS5003;48703;51.248;-0.546;2023-02-13T17:02:17;24.94;22.20;
62631;PMS5003;48703;51.248;-0.546;2023-02-13T17:05:16;28.07;24.01;
62631;PMS5003;48703;51.248;-0.546;2023-02-13T17:08:11;28.62;26.35;
62631;PMS5003;48703;51.248;-0.546;2023-02-13T17:11:15;30.62;26.32;
62631;PMS5003;48703;51.248;-0.546;2023-02-13T17:14:13;28.39;24.58;
62631;PMS5003;48703;51.248;-0.546;2023-02-13T17:17:15;30.39;26.36;
62631;PMS5003;48703;51.248;-0.546;2023-02-13T17:20:16;30.28;27.74;
62631;PMS5003;48703;51.248;-0.546;2023-02-13T17:23:19;34.18;29.18;
62631;PMS5003;48703;51.248;-0.546;2023-02-13T17:26:18;32.78;29.19;
62631;PMS5003;48703;51.248;-0.546;2023-02-13T17:29:19;28.43;25.33;
62631;PMS5003;48703;51.248;-0.546;2023-02-13T17:32:21;31.48;27.38;
62631;PMS5003;48703;51.248;-0.546;2023-02-13T17:35:22;33.33;30.48;
62631;PMS5003;48703;51.248;-0.546;2023-02-13T17:38:24;36.87;32.52;
62631;PMS5003;48703;51.248;-0.546;2023-02-13T17:41:25;36.94;32.74;
62631;PMS5003;48703;51.248;-0.546;2023-02-13T17:44:27;39.14;35.01;
62631;PMS5003;48703;51.248;-0.546;2023-02-13T17:47:29;36.23;33.49;
62631;PMS5003;48703;51.248;-0.546;2023-02-13T17:50:31;38.91;35.82;
62631;PMS5003;48703;51.248;-0.546;2023-02-13T17:53:32;46.25;41.39;
62631;PMS5003;48703;51.248;-0.546;2023-02-13T17:56:33;38.61;34.46;